Last 365 Observations

Canyon Lodge - 8,343ft

Daily Data | America/Los_Angeles
as of 5/2/26 7:15 AM PDT
Date Daily Max Temp (°F) Time of Max Temp Daily Min Temp (°F) Time of Min Temp Wind Spd (mph) Daily Max Wind (mph) Time of Max Wind Max Wind Dir (°) Dew Pt (°F) Daily Max RH (%) Daily Min RH (%) Wet Bulb (°F) WetB Hrs <28F (hrs) Hrs <= 32F (hrs) Min Wind Chill (°F) Wind Chill Time
5/1/26 58.9 1617 33.2 0602 1.3 13.5 1035 NW | 318 12.0 27 23 34.5 3.9 0.0 31.9 0543
4/30/26 56.8 1458 33.2 0507 1.6 15.2 1411 NW | 310 10.7 28 23 33.2 4.9 0.0 32.0 0325
4/29/26 53.5 1456 28.2 0503 - 11.7 1142 NNE | 20 12.2 43 23 31.6 6.6 6.2 24.5 0552
4/28/26 44.6 1540 26.5 0616 1.7 14.2 1217 SSW | 192 11.9 43 31 28.1 12.4 9.5 22.1 0511
4/27/26 40.3 1448 26.2 0632 2.7 21.1 1516 S | 175 11.3 45 36 26.4 16.2 10.1 14.6 0235
4/26/26 36.5 1254 26.6 0502 6.5 29.2 0626 S | 169 7.1 51 23 23.9 21.0 18.7 10.9 0626
4/25/26 39.5 1208 28.8 2353 3.9 21.2 1039 SSW | 202 12.5 52 23 28.4 8.3 4.9 16.8 2301
4/24/26 44.7 1147 30.4 0411 3.0 24.4 1643 S | 171 8.9 41 22 29.2 8.1 2.2 26.5 2022
4/23/26 50.0 1642 18.0 0638 1.2 10.5 1611 WNW | 300 1.3 27 22 25.8 13.2 8.3 10.7 0204
4/22/26 32.1 1418 20.6 0013 3.9 30.6 0132 SSE | 165 -5.0 26 22 20.1 24.0 23.9 6.1 0132
4/21/26 40.8 0146 23.3 0054 4.6 33.2 1617 S | 175 -1.3 26 22 23.3 18.0 13.1 6.0 0044
4/20/26 51.0 1502 37.0 0438 3.3 27.3 0048 WSW | 251 14.9 43 22 33.8 0.0 0.0 30.0 2209
4/19/26 53.7 1458 34.0 0520 2.3 15.7 1426 S | 189 24.4 53 35 36.4 0.0 0.0 30.2 0106
4/18/26 55.5 1355 27.5 0612 1.6 14.4 1611 WSW | 250 22.3 52 41 33.8 6.5 6.3 24.2 0602
4/17/26 49.4 1530 14.7 0449 1.2 9.9 1247 NE | 42 10.8 51 22 26.8 12.5 8.9 7.7 0445
4/16/26 43.0 1359 21.1 0101 6.4 30.5 0754 S | 184 7.7 40 21 28.0 9.4 4.4 14.3 0029
4/15/26 47.4 1229 27.4 0605 4.2 24.4 1602 S | 185 8.4 34 24 29.8 6.6 5.8 23.6 0457
4/14/26 45.7 1451 21.3 0455 1.7 13.1 1616 S | 172 12.7 50 25 27.8 12.9 8.9 14.6 0622
4/13/26 36.6 1631 18.0 0643 1.7 13.8 1027 NNW | 328 3.5 46 25 21.8 22.6 18.2 12.2 0515
4/12/26 27.4 0101 19.2 0455 4.6 31.7 0440 S | 190 -2.8 43 24 18.1 24.0 24.0 0.6 0440
4/11/26 37.6 1214 27.4 0058 5.1 29.7 1613 SSW | 199 11.3 51 25 26.4 15.8 11.1 14.2 0022
4/10/26 43.3 1053 31.1 0056 4.2 25.6 2031 S | 182 17.7 47 41 30.6 5.2 0.9 19.4 2249
4/9/26 50.8 1337 37.6 0417 4.3 27.9 2221 S | 169 23.2 48 42 35.6 0.0 0.0 29.1 2221
4/8/26 57.4 1310 35.5 0701 2.8 19.4 2135 S | 179 25.8 49 41 37.9 0.0 0.0 33.3 0554
4/7/26 58.5 1502 34.8 0412 2.1 17.0 1845 S | 186 26.1 49 40 38.1 0.0 0.0 31.8 0425
4/6/26 56.3 1320 36.8 0513 1.9 18.8 1641 S | 188 21.6 49 25 36.5 0.0 0.0 35.3 2347
4/5/26 55.7 1309 31.9 0621 1.5 11.9 1527 S | 174 16.0 45 23 33.9 4.8 0.1 26.8 0612
4/4/26 53.6 1646 27.2 0606 1.3 12.6 1037 NNW | 336 16.4 47 32 31.6 7.4 6.6 21.6 0627
4/3/26 47.4 1637 19.2 0456 1.0 14.9 1421 N | 1 -0.8 43 6 25.4 14.8 11.4 14.2 0323
4/2/26 46.1 1642 23.4 0054 6.5 49.0 0310 WSW | 245 7.3 48 6 27.2 15.2 12.4 13.8 0310
4/1/26 35.9 1239 29.4 0617 8.3 39.2 1816 S | 191 12.7 46 41 26.4 21.5 11.8 14.2 0323
3/31/26 41.5 0322 30.0 1935 7.2 35.2 1620 SSW | 192 11.7 44 30 28.3 12.7 7.4 14.4 1834
3/30/26 53.0 1338 40.3 0048 - 24.5 1721 SSE | 168 23.5 48 29 37.4 0.0 0.0 32.1 0044
3/29/26 59.5 1514 38.6 0431 2.3 21.1 2224 SW | 228 27.9 48 41 40.0 0.0 0.0 35.6 0652
3/28/26 60.4 1250 40.4 0706 2.0 17.4 1603 WSW | 245 28.4 47 38 40.8 0.0 0.0 37.1 0624
3/27/26 60.8 1437 35.8 0355 1.7 13.6 1225 S | 182 28.5 51 39 40.1 0.0 0.0 31.5 0358
3/26/26 63.0 1528 36.4 0035 2.8 18.6 0343 SSE | 164 30.3 49 39 42.0 0.0 0.0 33.5 0036
3/25/26 62.5 1415 43.6 0717 2.9 16.9 1202 SSW | 197 32.4 50 39 43.8 0.0 0.0 41.9 0502
3/24/26 65.7 1432 43.3 0638 - 16.1 0936 S | 182 32.1 49 38 43.8 0.0 0.0 41.5 0453
3/23/26 59.9 1607 46.2 0439 4.8 22.7 0804 S | 188 32.7 49 40 44.0 0.0 0.0 42.6 0456
3/22/26 62.9 1309 39.8 0501 - 20.3 0015 S | 189 31.7 51 40 42.8 0.0 0.0 37.5 0609
3/21/26 59.1 1459 42.4 0018 2.5 18.2 0106 WNW | 283 30.9 48 40 42.5 0.0 0.0 41.0 0027
3/20/26 68.6 1253 43.4 0712 1.8 18.6 2347 S | 186 34.0 51 39 45.1 0.0 0.0 42.4 0640
3/19/26 70.7 1403 41.3 0705 1.5 8.3 2029 SW | 218 29.5 48 32 43.0 0.0 0.0 41.1 0501
3/18/26 70.4 1303 40.8 0649 1.4 16.7 1656 SSW | 195 23.7 39 23 40.9 0.0 0.0 37.6 0656
3/17/26 64.8 1430 40.1 0723 - 15.9 1217 SSW | 197 22.7 42 24 39.5 0.0 0.0 38.8 0502
3/16/26 63.2 1523 38.4 0651 1.3 9.5 1403 NW | 307 21.9 41 26 38.4 0.0 0.0 34.0 0617
3/15/26 57.4 1516 34.5 0427 - 11.0 1144 NNW | 329 15.6 38 25 34.6 3.3 0.0 29.5 0404
3/14/26 54.5 1532 35.4 0053 3.5 18.8 0152 SSW | 204 16.0 33 24 36.0 0.4 0.0 34.2 0024
3/13/26 60.7 1337 36.5 0335 3.2 28.2 2026 SSE | 161 17.6 36 25 37.1 0.1 0.0 34.2 0344
3/12/26 58.9 1523 32.8 0636 - 11.4 1911 S | 179 18.1 45 26 34.8 2.6 0.0 30.4 0350
3/11/26 54.3 1424 32.8 0601 1.5 17.2 0330 S | 188 19.2 45 32 34.2 2.2 0.0 27.6 0600
3/10/26 48.6 1454 33.2 0542 3.2 25.7 1234 S | 174 14.0 42 24 32.3 5.7 0.0 28.7 0727
3/9/26 56.3 1318 33.4 0554 1.3 16.6 2103 WSW | 247 12.9 36 24 33.2 6.3 0.0 30.9 0630
3/8/26 56.3 1517 28.0 0537 1.0 10.0 1648 N | 0 12.1 39 24 31.9 7.8 6.8 22.4 0355
3/7/26 41.5 1553 19.8 0610 2.8 20.0 1319 NNW | 328 8.6 46 25 25.2 15.3 9.5 11.7 0608
3/6/26 34.9 1556 15.2 0643 2.9 19.3 1848 WNW | 303 6.8 48 38 21.4 24.0 17.2 6.7 0634
3/5/26 34.9 1451 17.2 0614 - 21.4 0023 SSW | 206 6.6 50 38 20.7 23.9 21.1 9.6 0738
3/4/26 43.0 1058 27.4 2338 6.5 39.0 1311 S | 186 18.8 51 46 30.3 7.2 5.7 15.4 2236
3/3/26 49.4 1501 24.7 0624 1.0 7.2 1217 SE | 134 17.5 50 46 29.4 11.6 9.4 19.2 0615
3/2/26 42.8 1526 27.8 2312 3.9 25.5 0355 SSE | 159 17.6 50 46 29.5 5.0 2.7 21.8 0726
3/1/26 46.7 1015 35.2 1445 - 27.7 0803 WSW | 251 23.2 51 47 34.4 0.0 0.0 24.2 1446
2/28/26 52.2 1217 39.2 0002 3.7 41.1 1320 SSW | 195 26.8 50 45 38.2 0.0 0.0 31.4 1903
2/27/26 55.1 1359 36.9 0307 2.1 17.1 1256 SSE | 163 20.3 47 25 36.6 0.0 0.0 35.3 0240
2/26/26 55.2 1425 37.9 2357 2.4 21.0 0812 SSE | 164 15.6 36 26 35.0 0.0 0.0 35.1 0601
2/25/26 45.0 1347 39.3 0157 6.8 37.5 0058 S | 173 14.7 39 27 33.1 0.0 0.0 27.0 0202
2/24/26 45.2 1815 35.0 0326 12.6 50.1 0813 SSW | 196 18.3 51 28 33.7 0.0 0.0 20.8 0553
2/23/26 50.8 1016 36.9 0304 4.9 28.4 2352 S | 184 25.2 51 47 35.9 0.0 0.0 29.8 2352
2/22/26 42.8 1214 23.4 0643 2.9 27.0 0104 ESE | 118 13.9 49 35 29.0 9.4 7.1 17.5 0720
2/21/26 35.8 1519 8.7 0045 - 18.0 1437 W | 261 -1.0 43 34 16.4 23.2 21.4 0.8 0415
2/20/26 27.2 1411 5.6 0700 - 22.6 0358 S | 182 -5.4 46 34 11.5 24.0 24.0 -7.4 0015
2/19/26 19.7 1035 8.6 2255 6.0 38.9 1204 SSW | 193 -7.2 39 33 11.4 24.0 24.0 -9.2 2020
2/18/26 16.0 0004 9.0 0618 7.1 36.8 1816 S | 185 -9.9 41 33 9.0 24.0 24.0 -11.4 0951
2/17/26 21.9 1902 15.7 2347 5.9 50.7 2146 SE | 125 -0.8 49 33 14.9 24.0 24.0 -5.6 1021
2/16/26 30.0 0724 18.6 2352 - 37.4 1911 SW | 220 3.6 47 34 19.3 24.0 24.0 0.7 2319
2/15/26 39.4 1311 27.4 2358 2.7 17.8 2208 WSW | 246 6.3 39 27 25.3 19.1 12.6 16.3 2204
2/14/26 40.6 1055 22.8 0241 2.8 23.3 1219 W | 273 10.4 49 27 26.1 17.7 7.1 17.4 0205
2/13/26 40.7 1301 16.8 0624 0.9 6.1 1547 SSW | 195 8.7 50 40 22.2 18.4 17.5 11.6 0639
2/12/26 34.8 1457 16.5 0403 - 11.6 0110 NW | 316 1.9 47 26 19.9 23.9 21.1 9.9 0235
2/11/26 29.2 0326 18.1 2315 2.2 22.8 1520 W | 266 -0.1 44 23 20.4 24.0 24.0 8.6 2316
2/10/26 36.1 1223 26.2 0001 0.8 19.4 0858 S | 181 3.1 44 23 23.5 22.8 17.4 21.8 0858
2/9/26 39.2 0840 25.4 2029 2.2 23.1 0117 SSW | 192 6.9 41 25 26.6 10.0 5.5 23.8 1929
2/8/26 50.1 1219 28.8 0516 - 26.5 2259 W | 274 10.4 42 25 29.9 8.8 7.7 25.1 0619
2/7/26 45.5 1450 27.3 0612 1.0 11.6 1502 SSE | 152 12.0 48 26 28.0 14.7 9.4 23.7 0334
2/6/26 42.9 1010 29.6 2255 - 8.9 1538 NW | 317 15.0 47 38 28.9 7.7 4.0 24.9 2323
2/5/26 50.2 1242 28.5 0652 1.3 9.3 2210 W | 281 17.1 48 38 30.9 7.3 2.9 24.1 0659
2/4/26 50.1 1249 28.9 0646 1.0 8.5 2126 WSW | 244 17.0 49 37 30.5 9.1 7.1 26.8 0419
2/3/26 51.8 1145 28.8 0331 1.0 9.5 1219 NNE | 14 12.9 46 26 30.3 11.1 7.1 26.1 2228
2/2/26 49.8 1313 29.4 0314 0.9 6.8 0940 ENE | 74 8.4 38 25 28.2 15.4 8.4 23.8 0703
2/1/26 51.4 1401 31.2 0053 1.5 12.0 1148 S | 190 12.4 37 25 32.0 6.3 0.7 29.8 0137
1/31/26 50.9 1145 29.8 0707 0.6 7.6 0033 SSW | 204 15.0 48 26 30.7 12.4 4.2 24.6 0609
1/30/26 51.5 1441 31.4 0226 0.6 12.6 1406 S | 169 13.3 46 26 31.0 8.2 0.2 29.4 2219
1/29/26 47.7 1330 26.7 0001 1.0 8.7 0034 SSW | 198 13.5 49 26 28.8 14.5 8.4 19.2 0027
1/28/26 44.3 1152 26.0 2301 - 27.5 0436 SW | 231 10.6 48 29 27.4 16.3 7.7 18.7 0322
1/27/26 43.9 1210 19.8 0303 2.3 19.2 2225 W | 281 4.7 42 18 26.0 15.5 7.2 14.9 0155
1/26/26 40.2 1300 22.6 0216 - 12.1 0412 S | 190 7.2 49 20 23.6 18.4 16.9 14.9 0215
1/25/26 39.4 1334 17.9 0602 0.8 11.5 1252 S | 175 9.2 50 41 22.1 18.9 18.0 11.4 0207
1/24/26 29.2 1316 15.7 2245 2.0 15.7 1217 N | 6 4.7 49 39 19.0 24.0 24.0 9.4 0628
1/23/26 44.1 1140 26.5 2359 1.8 14.0 1721 SSE | 158 8.6 44 25 27.2 13.6 11.2 19.9 2333
1/22/26 43.5 1144 29.9 2346 0.9 11.6 1334 NW | 308 8.4 38 25 28.9 10.6 2.2 27.7 2329
1/21/26 53.0 1324 34.5 0100 0.7 12.7 0159 S | 182 13.0 38 25 32.6 1.5 0.0 33.6 2025
1/20/26 51.7 1109 27.2 0238 1.3 16.1 1149 SSE | 168 9.4 38 25 29.3 13.4 8.0 21.9 0109
1/19/26 49.1 1155 28.0 2304 0.8 6.8 1613 SW | 214 8.9 40 27 28.2 15.6 8.6 26.6 0421
1/18/26 54.5 1413 33.9 2344 - 16.3 0443 NNE | 27 14.7 41 27 33.0 3.2 0.0 29.4 2348
1/17/26 52.5 1415 29.6 0010 - 7.7 0021 S | 186 16.3 49 27 31.3 9.6 1.4 24.3 0001
1/16/26 48.2 1252 26.5 0608 1.2 9.3 1107 NNW | 339 15.7 47 39 29.0 11.3 8.2 19.2 0646
1/15/26 52.7 1315 31.4 2255 1.3 12.7 1403 NNE | 21 14.2 45 28 31.4 10.5 0.3 24.8 2249
1/14/26 54.2 1244 32.1 2339 - 9.1 1921 W | 263 12.0 39 27 31.0 12.3 0.0 26.8 0417
1/13/26 49.1 1403 28.0 0602 0.7 6.3 2017 WNW | 298 9.7 40 27 28.7 12.6 8.3 23.8 0648
1/12/26 44.4 1239 24.6 0258 1.1 7.7 2032 WNW | 282 11.9 51 26 26.6 16.3 13.3 19.9 0547
1/11/26 46.2 1258 24.0 0406 0.6 5.9 2101 WSW | 249 5.9 50 19 25.2 17.1 15.6 19.5 0213
1/10/26 39.4 1211 19.1 0200 0.3 5.0 0336 SSW | 193 -2.1 41 19 20.7 19.4 18.2 13.9 0055
1/9/26 32.1 1454 11.2 0032 1.2 15.0 1118 WNW | 295 -6.6 43 19 16.1 24.0 24.0 3.0 0001
1/8/26 23.2 0005 6.5 2126 3.0 37.8 0130 S | 187 -9.7 45 19 11.6 24.0 24.0 -1.2 2222
1/7/26 33.4 1246 22.0 0004 6.1 34.6 2135 S | 169 2.2 48 23 21.8 24.0 23.8 4.6 2340
1/6/26 34.7 1410 20.1 0409 0.5 6.2 2333 SSW | 203 -2.2 42 23 19.4 24.0 21.1 13.9 2333
1/5/26 32.2 1326 21.5 0731 6.5 37.0 0604 S | 187 -0.9 46 24 20.1 24.0 24.0 4.5 0738
1/4/26 30.7 0010 22.2 2302 3.7 31.4 0340 SE | 140 -4.9 27 23 19.8 24.0 24.0 6.1 2353
1/3/26 37.3 0018 27.4 0111 2.8 30.2 1609 E | 87 1.7 38 22 23.6 23.9 23.3 16.3 1513
1/2/26 41.2 1335 24.4 0012 2.3 27.8 1823 S | 182 6.5 41 25 25.9 14.9 9.6 18.2 0009
1/1/26 34.2 0645 25.4 2351 1.7 29.4 2012 SSW | 203 0.1 43 16 22.8 24.0 23.9 15.0 2012
12/31/25 43.0 1127 30.6 2337 - 4.7 0118 SSW | 194 3.8 42 17 27.0 16.7 4.3 29.1 0128
12/30/25 42.1 1243 23.0 0221 0.5 7.5 1738 WNW | 291 1.7 40 18 25.0 16.8 9.7 17.8 0301
12/29/25 36.5 1404 16.6 0046 0.7 7.3 2042 SSE | 160 -3.7 42 18 19.3 22.3 19.4 9.6 0016
12/28/25 35.6 1131 16.4 2311 0.6 7.8 1447 N | 3 -5.9 41 18 17.8 23.9 20.6 10.6 2035
12/27/25 31.0 1338 16.1 0622 1.7 20.6 0018 SSW | 207 -5.4 45 18 17.1 24.0 24.0 7.6 0622
12/26/25 30.4 0122 22.9 2242 6.1 50.0 0001 SSW | 202 -7.1 40 15 19.6 24.0 24.0 4.7 1941
12/25/25 30.9 2318 25.1 0549 5.4 47.4 2218 SW | 222 3.2 43 3 22.0 24.0 24.0 9.8 0005
12/24/25 32.1 0001 26.9 2356 1.9 28.3 2051 WSW | 254 5.5 39 30 23.9 24.0 24.0 11.9 2329
12/23/25 43.3 0001 31.7 2325 3.2 25.8 0725 S | 186 14.5 41 32 31.1 5.0 0.4 22.0 0902
12/22/25 45.3 1059 38.4 0436 2.7 18.8 0155 SSW | 198 17.0 40 34 33.4 0.0 0.0 29.8 0101
12/21/25 44.9 1346 37.4 0059 7.0 43.1 0227 S | 173 18.8 47 34 33.2 0.0 0.0 24.4 0006
12/20/25 42.4 1414 37.3 0444 5.3 38.4 0157 SSW | 200 17.5 44 36 32.1 0.0 0.0 25.6 0401
12/19/25 47.7 1257 37.6 0423 9.2 42.1 1215 SSE | 160 15.4 42 27 32.8 0.0 0.0 25.1 0413
12/18/25 53.4 1320 41.0 0656 5.7 29.1 1215 SSW | 197 21.3 44 27 37.1 0.0 0.0 33.2 2302
12/17/25 48.4 1423 40.1 0728 8.0 32.0 0741 SSE | 168 19.2 43 25 35.5 0.0 0.0 28.6 0741
12/16/25 54.8 1134 36.8 0406 2.2 22.8 2358 WSW | 248 16.6 37 26 35.3 0.0 0.0 33.4 0631
12/15/25 54.9 1309 31.6 0447 0.7 6.0 1356 SSW | 196 15.3 40 30 32.6 7.5 0.1 31.3 0136
12/14/25 52.3 1154 32.6 0705 - 8.0 1428 SSW | 206 15.1 42 31 31.5 6.3 0.0 30.0 2108
12/13/25 54.6 1246 34.0 0421 - 6.8 1450 SSW | 213 20.2 48 37 33.4 0.0 0.0 31.2 0608
12/12/25 56.3 1240 34.8 2335 1.0 7.2 1452 SSW | 209 17.6 46 29 33.7 0.5 0.0 30.0 0522
12/11/25 59.0 1403 36.9 2323 0.5 9.6 1403 NW | 312 16.4 35 27 34.8 0.0 0.0 36.9 2323
12/10/25 57.1 1247 35.0 0021 1.0 6.0 1345 SSW | 198 15.6 37 26 34.0 1.4 0.0 32.8 0650
12/9/25 56.0 1231 36.1 2254 0.6 9.7 1309 ESE | 113 15.1 37 27 33.8 0.1 0.0 34.3 0707
12/8/25 54.8 1348 30.1 0418 1.1 15.4 1331 S | 175 13.1 40 27 31.7 7.8 3.2 27.8 0530
12/7/25 51.6 1134 31.9 2329 2.6 18.5 1451 SSE | 167 14.0 36 26 33.2 4.2 0.1 26.0 2325
12/6/25 52.5 1333 35.4 1905 1.2 11.2 0026 WSW | 254 15.3 38 26 33.7 1.1 0.0 32.0 1810
12/5/25 50.9 1257 28.9 0546 - 9.4 1130 N | 10 11.0 38 28 30.2 8.6 4.6 24.7 0623
12/4/25 43.6 1319 22.7 0540 - 8.0 2012 SSW | 192 3.9 39 27 24.1 18.4 15.4 17.2 0147
12/3/25 32.6 1403 18.8 0728 - 13.7 1023 NNW | 344 -3.7 40 23 19.0 24.0 23.9 9.5 0554
12/2/25 51.8 1105 26.4 2238 - 23.0 1708 SSW | 200 8.1 30 24 29.6 10.1 4.4 17.9 2311
12/1/25 44.8 1204 21.3 0639 0.6 6.1 1437 S | 169 0.9 30 26 23.3 18.9 16.3 17.0 0003
11/30/25 43.1 1345 23.2 2359 4.5 27.8 1329 S | 173 9.1 42 26 28.2 7.3 6.8 16.2 2322
11/29/25 47.0 1222 26.1 0416 3.0 22.3 1558 SSW | 200 8.7 37 26 28.7 9.1 8.0 21.6 0407
11/28/25 48.0 1429 28.2 2257 4.2 26.5 0501 SW | 219 14.5 40 29 32.2 5.7 1.8 26.4 2314
11/27/25 54.8 1203 33.3 0553 1.2 7.1 1616 WSW | 252 16.1 43 28 33.8 5.8 0.0 32.1 0534
11/26/25 52.6 1208 31.7 0655 0.7 6.8 0754 SSW | 196 19.9 51 29 32.7 4.2 0.0 27.9 0528
11/25/25 51.1 1135 30.1 0037 - 8.2 0004 WNW | 294 21.6 51 46 32.8 2.0 0.4 26.9 0709
11/24/25 49.2 1237 30.8 1824 1.8 14.0 0719 NNW | 346 21.4 51 47 32.7 2.8 0.8 26.7 0218
11/23/25 45.2 1206 24.7 0400 2.5 11.7 2322 S | 178 16.6 51 47 28.4 9.5 8.4 18.0 0329
11/22/25 34.4 1318 22.7 0735 1.0 9.2 1016 NE | 35 10.6 49 44 23.4 23.1 19.2 15.6 0535
11/21/25 30.3 1438 25.0 0535 1.8 18.5 0926 N | 4 9.8 49 44 22.9 24.0 24.0 13.3 0623
11/20/25 32.2 0754 25.4 0639 0.5 12.2 0748 NW | 306 10.4 50 44 23.2 24.0 23.9 19.8 0525
11/19/25 37.8 1300 23.0 0707 0.6 7.3 1325 N | 11 12.1 51 45 24.4 20.1 18.6 18.1 0541
11/18/25 31.9 2023 23.5 0103 - 15.4 1648 NW | 325 10.6 50 44 23.4 24.0 24.0 13.9 0242
11/17/25 33.9 0424 23.4 2148 3.3 27.7 1708 S | 188 11.2 50 44 23.7 23.7 21.4 8.3 2133
11/16/25 35.4 0009 29.4 0834 5.1 31.6 1243 SSW | 202 13.5 50 45 25.8 22.8 21.1 15.9 0940
11/15/25 40.6 1223 35.1 2359 1.2 11.9 1414 N | 0 19.3 51 44 31.3 0.0 0.0 31.1 0959
11/14/25 43.1 1427 34.4 0756 1.0 21.3 0253 SSE | 154 20.1 51 44 31.9 0.0 0.0 29.4 0003
11/13/25 48.8 0821 38.1 2000 5.1 31.1 2252 SSW | 193 23.5 50 43 35.3 0.0 0.0 29.7 0901
11/12/25 52.6 1207 41.0 1927 3.7 21.8 1406 SSE | 166 26.8 49 44 38.4 0.0 0.0 34.5 1822
11/11/25 58.9 1046 40.2 0512 3.1 25.6 2340 SSW | 196 30.0 51 43 40.9 0.0 0.0 36.1 0523
11/10/25 65.2 1256 38.6 0338 0.8 10.0 1351 SW | 224 28.8 51 43 39.9 0.0 0.0 35.6 0246
11/9/25 60.9 1256 36.4 0547 1.0 7.6 1335 NNE | 15 27.3 50 45 38.4 0.0 0.0 36.4 0614
11/8/25 59.2 1416 34.4 0541 0.8 8.3 1526 SSW | 193 25.4 50 45 36.8 0.0 0.0 32.0 0100
11/7/25 57.2 1314 36.8 2328 2.3 21.9 0943 SE | 143 27.3 50 43 38.5 0.0 0.0 34.2 0203
11/6/25 52.1 1232 38.2 0335 5.4 34.5 0007 S | 186 27.3 52 47 38.0 0.0 0.0 27.8 0007
11/5/25 46.5 0003 32.2 1457 9.0 38.1 0315 W | 261 23.3 51 46 34.4 0.5 0.0 20.5 1502
11/4/25 57.1 1107 43.6 2228 4.6 31.2 0218 SSW | 199 30.3 51 44 41.3 0.0 0.0 36.6 2234
11/3/25 55.6 1237 40.0 0121 4.1 25.7 2323 W | 267 28.8 49 43 40.2 0.0 0.0 35.0 0056
11/2/25 64.3 1254 40.4 0514 1.0 11.7 0235 NW | 319 29.5 50 43 40.8 0.0 0.0 37.9 0235
11/1/25 63.2 1259 40.0 0620 1.7 18.9 1225 SSW | 193 29.8 50 42 40.9 0.0 0.0 37.1 0706
10/31/25 63.8 1515 38.0 0717 1.3 8.6 1223 SSE | 164 29.3 50 44 40.4 0.0 0.0 35.8 0535
10/30/25 63.0 1318 39.0 0648 1.4 20.4 1635 S | 179 29.5 50 44 40.6 0.0 0.0 37.8 0512
10/29/25 61.2 1449 39.0 0352 1.6 11.6 1502 NW | 311 29.1 50 42 40.1 0.0 0.0 35.0 0649
10/28/25 61.8 1336 35.7 0258 0.8 6.5 1326 SSE | 160 26.2 50 43 37.8 0.0 0.0 32.6 0316
10/27/25 59.7 1357 36.6 0045 2.9 26.5 0212 SSE | 166 28.6 51 42 39.9 0.0 0.0 34.5 0740
10/26/25 47.8 2334 37.8 0711 10.3 43.3 2012 S | 182 24.2 50 45 35.6 0.0 0.0 26.7 0747
10/25/25 50.0 0150 40.7 0052 8.8 39.0 1426 SE | 143 25.3 49 44 37.0 0.0 0.0 28.7 2253
10/24/25 61.1 1339 36.0 0619 2.6 20.8 1421 SSW | 211 27.6 49 41 39.5 0.0 0.0 34.5 0718
10/23/25 56.0 1450 34.6 0712 1.3 10.7 1352 NNE | 31 24.0 48 42 36.0 0.0 0.0 30.1 0723
10/22/25 48.4 0156 36.6 0101 1.4 25.1 0252 SSW | 201 22.5 50 43 34.5 0.0 0.0 31.3 1404
10/21/25 63.0 1327 38.9 0356 1.3 17.3 1128 S | 175 28.5 49 43 40.1 0.0 0.0 34.2 0229
10/20/25 63.6 1446 35.3 0620 1.0 7.9 1541 SE | 142 27.2 49 42 39.0 0.0 0.0 33.4 0541
10/19/25 58.6 1233 42.8 2301 5.0 26.7 0423 S | 183 32.4 51 43 43.2 0.0 0.0 40.2 0049
10/18/25 63.1 1339 36.1 0343 1.0 14.0 0036 SSW | 196 28.1 51 45 39.1 0.0 0.0 33.1 0728
10/17/25 56.8 1454 28.0 0127 - 10.4 1213 NNW | 337 23.4 51 46 34.6 6.7 6.6 22.2 0520
10/16/25 42.8 1459 26.3 0614 1.6 13.2 1429 NNE | 17 16.1 51 46 28.0 12.4 10.9 22.4 0632
10/15/25 42.0 1400 21.9 0735 2.0 26.8 0538 S | 186 13.9 51 45 26.1 15.8 14.6 8.9 0538
10/14/25 32.8 1244 24.9 2218 2.1 24.8 1914 WSW | 240 11.1 51 44 23.8 24.0 23.4 10.2 1914
10/13/25 38.1 0329 30.6 2222 5.8 28.2 0607 SSE | 154 16.3 50 45 28.3 12.3 5.8 17.9 0910
10/12/25 55.2 1349 26.1 0419 2.7 21.5 2209 S | 186 21.0 49 43 33.2 7.1 7.0 23.0 0614
10/11/25 45.7 0101 29.3 0051 6.3 34.8 0502 S | 182 20.1 48 43 32.6 3.1 1.0 24.9 0039
10/10/25 56.3 1209 44.3 2222 5.2 30.8 0108 S | 172 27.8 46 40 40.3 0.0 0.0 35.5 2244
10/9/25 59.8 1244 48.6 0629 5.4 32.4 0039 SSW | 206 32.0 48 39 43.7 0.0 0.0 42.9 0450
10/8/25 60.2 1301 36.3 0624 3.4 26.3 0052 S | 187 27.7 47 40 40.0 0.0 0.0 34.3 0710
10/7/25 60.4 1600 35.1 0628 - 10.1 1629 SSW | 199 25.2 47 39 37.8 0.0 0.0 32.9 0545
10/6/25 57.3 1610 33.2 0635 1.0 12.1 1349 ESE | 102 23.0 47 40 35.8 0.4 0.0 31.0 0702
10/5/25 56.5 1500 32.0 0340 1.0 9.9 1257 SSE | 155 21.6 46 40 34.7 3.3 0.0 29.6 0207
10/4/25 53.8 1549 30.8 0500 - 10.8 1434 NNE | 30 20.3 47 41 33.2 7.2 2.7 25.9 0349
10/3/25 43.4 0101 32.3 1339 3.5 29.7 0511 SW | 217 17.8 47 41 30.9 0.7 0.0 22.6 1336
10/2/25 55.7 1227 40.1 2327 4.7 27.9 2210 W | 267 26.4 45 39 39.4 0.0 0.0 32.9 2158
10/1/25 58.3 1432 39.6 0126 2.9 22.4 1243 WSW | 244 28.0 46 38 40.7 0.0 0.0 37.1 0140
9/30/25 48.2 1534 38.4 0433 - 33.1 1633 SSW | 199 22.1 44 39 35.5 0.0 0.0 30.5 0454
9/29/25 56.4 1211 42.4 0350 3.3 25.9 1734 S | 182 25.1 43 35 39.0 0.0 0.0 37.0 0056
9/28/25 62.6 1252 43.7 0532 1.6 23.3 1650 S | 172 26.7 42 32 41.2 0.0 0.0 43.3 0035
9/27/25 66.8 1451 43.7 0646 - 15.9 1728 S | 190 28.8 42 32 42.9 0.0 0.0 42.8 0506
9/26/25 63.0 1538 44.2 0339 2.5 18.7 1619 NW | 310 30.2 43 35 43.6 0.0 0.0 43.5 0355
9/25/25 60.9 1100 42.8 2309 1.3 15.5 1515 NW | 314 26.2 42 35 40.5 0.0 0.0 39.0 1708
9/24/25 69.0 1414 47.9 0642 1.8 17.4 1654 SSW | 193 31.4 44 33 44.8 0.0 0.0 46.4 0648
9/23/25 69.1 1600 44.5 0614 1.5 12.6 1147 N | 7 31.3 46 33 44.6 0.0 0.0 43.0 0715
9/22/25 66.7 1505 43.1 0531 1.3 13.8 1242 SSE | 168 29.3 43 32 43.2 0.0 0.0 41.4 0543
9/21/25 65.1 1253 42.3 0600 1.5 16.2 1733 SSW | 205 27.3 44 33 41.4 0.0 0.0 40.9 0530
9/20/25 62.4 1436 41.4 0602 1.4 18.2 1857 SSE | 165 26.7 44 33 40.7 0.0 0.0 39.9 0507
9/19/25 53.2 1432 43.5 0045 1.0 16.5 1513 SSW | 205 24.3 44 34 38.8 0.0 0.0 42.9 0049
9/18/25 61.9 1326 46.8 2139 1.1 17.6 1400 N | 0 28.4 42 34 42.7 0.0 0.0 45.0 1934
9/17/25 72.5 1505 47.9 0555 1.5 18.4 1557 S | 176 32.2 41 30 46.4 0.0 0.0 46.1 0556
9/16/25 72.0 1330 46.6 0431 1.5 18.6 1712 S | 178 31.5 42 30 45.6 0.0 0.0 46.3 0354
9/15/25 70.4 1241 44.3 0635 1.8 20.2 1440 SSW | 202 31.2 44 33 44.8 0.0 0.0 44.1 0445
9/14/25 66.8 1358 45.2 0515 2.6 23.0 1601 SSW | 192 30.9 44 34 44.4 0.0 0.0 42.2 0714
9/13/25 65.9 1447 39.2 0455 1.3 20.4 1600 SSE | 157 27.9 45 35 41.4 0.0 0.0 38.9 0400
9/12/25 59.4 1324 38.3 0644 1.1 15.6 1324 S | 169 23.7 44 37 37.6 0.0 0.0 35.7 0435
9/11/25 58.9 1611 38.1 0719 1.3 16.0 1610 WNW | 301 24.6 44 34 38.4 0.0 0.0 35.8 0607
9/10/25 54.4 1346 42.2 0708 4.0 21.7 0126 S | 177 23.6 44 36 37.6 0.0 0.0 36.4 2108
9/9/25 57.7 1210 45.5 0054 5.3 24.9 0601 W | 267 25.7 42 36 39.8 0.0 0.0 38.0 0601
9/8/25 59.8 1427 47.6 0058 4.8 26.9 1542 SSE | 167 28.5 41 34 42.8 0.0 0.0 40.9 2359
9/7/25 63.4 1307 51.6 0600 3.3 21.3 1607 SSE | 165 29.8 41 31 44.4 0.0 0.0 51.6 -
9/6/25 66.6 1214 48.9 0657 2.4 23.7 1651 S | 185 29.1 38 30 44.6 0.0 0.0 48.9 0657
9/5/25 71.4 1333 51.1 0455 1.4 22.5 1433 S | 180 29.9 38 27 45.6 0.0 0.0 51.1 -
9/4/25 70.5 1336 49.0 0624 2.1 21.6 1633 S | 176 30.2 38 28 45.6 0.0 0.0 49.0 0624
9/3/25 70.2 1452 47.2 0518 1.3 11.3 1752 SSW | 197 30.5 41 31 45.0 0.0 0.0 45.6 0523
9/2/25 73.9 1307 47.8 0025 0.9 18.2 1401 S | 182 27.7 37 30 43.6 0.0 0.0 46.4 0025
9/1/25 71.2 1320 55.8 2311 1.8 13.6 1236 S | 188 33.0 37 27 48.3 0.0 0.0 55.8 -
8/31/25 72.4 1427 49.4 0550 2.1 20.2 1844 WSW | 238 32.3 38 27 47.4 0.0 0.0 48.6 0617
8/30/25 71.8 1357 46.9 0629 - 14.6 1850 S | 183 30.9 40 28 46.0 0.0 0.0 46.7 0646
8/29/25 68.1 1623 47.4 0547 1.0 10.0 1745 SSE | 155 30.1 39 32 44.8 0.0 0.0 46.3 0557
8/28/25 65.8 1344 41.2 0647 1.2 13.5 1314 NW | 326 28.4 40 32 43.0 0.0 0.0 39.7 0527
8/27/25 67.6 1339 45.0 0042 2.9 19.1 0229 WNW | 288 28.2 39 31 43.5 0.0 0.0 44.2 2234
8/26/25 65.0 1209 46.6 1447 2.2 23.7 1020 S | 184 26.5 36 30 42.5 0.0 0.0 44.5 1436
8/25/25 69.7 1138 48.3 0623 - 16.0 1525 SW | 227 27.2 35 28 43.7 0.0 0.0 48.3 0624
8/24/25 72.2 1532 51.1 0054 - 20.0 1511 SSE | 168 28.2 35 26 45.0 0.0 0.0 51.1 -
8/23/25 70.8 0907 54.0 1517 0.6 10.5 1411 WSW | 246 27.2 32 23 45.2 0.0 0.0 54.0 -
8/22/25 78.0 1526 58.0 0021 1.7 24.6 1610 S | 190 30.9 32 20 49.1 0.0 0.0 58.0 -
8/21/25 78.9 1354 53.0 0533 2.4 18.2 1447 S | 183 32.7 100 21 50.7 0.0 0.0 53.0 -
8/20/25 76.7 1416 49.6 0605 - 15.6 1643 S | 182 30.0 33 23 47.4 0.0 0.0 49.6 0605
8/19/25 72.2 1422 53.4 0028 2.0 20.8 1459 S | 171 29.3 33 22 47.0 0.0 0.0 53.4 -
8/18/25 73.3 1402 53.9 0609 2.8 16.7 1508 SSE | 155 30.7 35 23 47.6 0.0 0.0 53.9 -
8/17/25 69.1 1303 48.2 0437 3.3 21.0 2201 W | 265 26.4 34 23 44.3 0.0 0.0 45.0 0611
8/16/25 67.9 1238 50.1 0550 3.2 24.0 1501 SSE | 158 25.3 32 23 44.1 0.0 0.0 50.1 -
8/15/25 75.6 1328 53.2 0630 - 24.1 1539 S | 180 27.7 31 20 46.5 0.0 0.0 53.2 -
8/14/25 75.1 1450 53.9 0518 3.0 21.3 1714 S | 177 29.0 31 20 47.6 0.0 0.0 53.9 -
8/13/25 78.2 1116 56.8 0036 2.3 25.2 1312 S | 182 28.9 31 18 48.0 0.0 0.0 56.8 -
8/12/25 80.9 1255 58.2 0644 1.8 19.7 1546 S | 172 32.5 30 20 50.3 0.0 0.0 58.2 -
8/11/25 82.1 1440 56.9 0644 1.8 16.8 1753 S | 181 32.4 32 20 49.9 0.0 0.0 56.9 -
8/10/25 79.7 1244 55.8 0635 2.2 20.5 1622 SSW | 202 31.6 33 21 49.2 0.0 0.0 55.8 -
8/9/25 78.9 1325 52.5 0625 - 20.0 1710 SE | 142 31.1 33 22 48.4 0.0 0.0 52.5 -
8/8/25 76.8 1530 48.4 0512 - 18.1 1233 SE | 144 31.3 36 23 48.0 0.0 0.0 48.4 0512
8/7/25 73.6 1508 52.4 0048 2.7 21.5 1243 S | 188 30.2 34 23 47.3 0.0 0.0 52.4 -
8/6/25 73.0 1428 50.3 0608 - 20.3 1506 SSE | 155 30.4 36 23 47.4 0.0 0.0 50.3 -
8/5/25 71.0 1351 49.9 0357 2.7 23.3 1425 SSE | 166 31.0 37 26 47.2 0.0 0.0 49.2 0357
8/4/25 67.3 1502 51.7 0716 4.8 27.0 1226 S | 184 29.5 37 26 45.6 0.0 0.0 - -
8/3/25 71.5 1300 49.1 0628 4.1 27.3 1015 S | 188 29.5 37 25 46.0 0.0 0.0 49.1 0628
8/2/25 71.9 1416 44.1 0612 2.2 18.3 1701 WSW | 255 29.5 37 25 45.9 0.0 0.0 43.9 0552
8/1/25 70.8 1307 48.6 0632 2.9 28.0 1624 SSW | 198 28.6 35 25 45.5 0.0 0.0 48.6 0632
7/31/25 72.4 1221 46.2 0309 2.6 23.2 1831 SSW | 195 28.3 36 24 45.1 0.0 0.0 45.3 0543
7/30/25 68.0 1148 48.5 0548 2.4 19.6 1503 N | 3 26.1 35 24 43.8 0.0 0.0 46.6 0552
7/29/25 73.2 1301 49.1 0638 2.2 18.9 1305 NW | 322 28.6 35 24 45.8 0.0 0.0 49.1 0638
7/28/25 72.7 1242 46.3 0538 2.2 20.0 1847 SSW | 209 28.4 35 25 45.2 0.0 0.0 46.1 0542
7/27/25 69.1 1403 45.2 0524 2.5 23.5 1620 SSW | 194 26.5 36 26 43.6 0.0 0.0 45.0 0430
7/26/25 66.4 1343 44.4 0617 - 23.8 1700 S | 178 25.0 36 26 42.3 0.0 0.0 42.9 0555
7/25/25 68.7 1409 46.0 0356 2.2 21.8 1614 S | 169 24.7 34 24 42.3 0.0 0.0 44.2 0337
7/24/25 69.6 1451 45.4 0405 - 28.9 1654 SSE | 164 25.4 35 26 43.1 0.0 0.0 44.3 0525
7/23/25 70.0 1421 46.5 0621 2.0 22.0 1705 SSW | 195 24.8 34 22 43.2 0.0 0.0 46.0 0504
7/22/25 68.7 1335 47.5 0319 2.5 21.1 1521 WSW | 249 25.8 36 24 43.8 0.0 0.0 45.3 0426
7/21/25 67.4 1338 52.6 0558 6.0 28.2 1106 S | 183 25.1 32 23 43.9 0.0 0.0 - -
7/20/25 75.4 1332 57.6 0529 - 29.4 1347 SSE | 154 28.7 28 21 47.7 0.0 0.0 - -
7/19/25 75.9 1316 52.5 0554 2.6 24.8 1724 SSE | 168 30.3 35 19 48.2 0.0 0.0 - -
7/18/25 75.8 1351 51.6 0611 2.8 24.6 1715 S | 185 30.4 38 22 47.3 0.0 0.0 - -
7/17/25 75.1 1252 52.6 0558 3.1 24.2 1425 S | 191 29.4 32 16 47.5 0.0 0.0 - -
7/16/25 76.3 1146 53.1 0527 2.7 22.9 1655 S | 170 28.3 30 19 47.5 0.0 0.0 - -
7/15/25 76.2 1225 58.5 0640 3.8 28.6 1643 SSE | 158 29.2 29 19 48.7 0.0 0.0 - -
7/14/25 81.2 1215 59.9 0157 2.9 25.2 1842 SW | 227 31.8 28 20 50.6 0.0 0.0 - -
7/13/25 81.7 1436 58.5 0557 2.2 22.8 1611 SSW | 196 31.0 28 19 49.9 0.0 0.0 - -
7/12/25 80.5 1327 55.9 0606 2.4 21.7 1445 SSE | 163 31.6 30 20 49.8 0.0 0.0 - -
7/11/25 79.6 1329 53.7 0557 2.6 21.6 1548 S | 186 30.1 31 20 48.5 0.0 0.0 - -
7/10/25 77.9 1403 49.0 0420 - 17.9 1654 S | 187 29.4 34 22 47.0 0.0 0.0 47.5 0420
7/9/25 71.0 1404 53.8 0054 3.8 30.9 1543 S | 187 29.7 34 23 47.1 0.0 0.0 - -
7/8/25 72.4 1248 53.2 0531 3.1 19.0 1504 S | 174 29.3 34 22 47.0 0.0 0.0 - -
7/7/25 73.2 1255 48.9 0443 3.2 22.7 1804 S | 187 28.9 33 23 46.5 0.0 0.0 48.9 0443
7/6/25 73.8 1401 47.4 0515 1.9 18.9 1821 SSW | 210 28.2 34 22 45.7 0.0 0.0 47.4 0515
7/5/25 71.4 1443 44.3 0614 2.0 17.9 1625 S | 184 28.6 37 25 45.1 0.0 0.0 42.5 0347
7/4/25 62.3 1159 48.1 2343 5.8 29.6 1023 SSE | 158 25.7 37 28 42.5 0.0 0.0 42.6 0500
7/3/25 67.7 1324 47.7 0539 4.2 28.8 1358 S | 174 26.4 35 26 43.9 0.0 0.0 47.7 0539
7/2/25 69.9 1240 48.6 0620 1.8 21.1 1645 SSW | 206 25.5 33 24 43.6 0.0 0.0 48.5 0542
7/1/25 72.8 1247 48.8 0600 - 19.7 1407 S | 185 27.5 32 21 45.8 0.0 0.0 48.7 0516
6/30/25 73.2 1432 47.7 0600 2.1 19.6 1610 S | 191 27.4 33 22 45.5 0.0 0.0 46.7 0542
6/29/25 76.8 1553 50.3 0506 - 18.3 1408 N | 0 29.5 33 23 47.1 0.0 0.0 - -
6/28/25 76.6 1429 51.2 0550 1.7 16.5 1721 S | 186 30.6 34 23 47.6 0.0 0.0 - -
6/27/25 71.6 1336 49.2 0508 - 21.5 1228 SSW | 196 29.8 37 24 46.3 0.0 0.0 49.1 0505
6/26/25 69.0 1239 50.6 0630 3.8 23.8 1423 SE | 135 29.9 36 26 46.0 0.0 0.0 - -
6/25/25 69.5 1326 44.9 0609 3.0 21.2 1712 SSW | 197 30.0 40 27 45.2 0.0 0.0 44.5 0348
6/24/25 65.2 1347 40.1 0413 1.9 19.0 1805 SSW | 203 26.0 41 31 41.1 0.0 0.0 38.5 0615
6/23/25 56.2 1219 39.7 0356 1.6 19.0 1544 S | 169 21.8 41 34 37.3 0.0 0.0 38.8 2248
6/22/25 59.3 1402 29.7 0408 2.8 19.1 1610 SE | 144 21.4 42 32 36.8 4.4 3.0 23.7 0447
6/21/25 50.3 1229 31.5 0035 6.5 36.7 0234 SW | 223 18.4 40 33 34.4 3.8 1.2 27.6 2308
6/20/25 58.8 1326 46.8 0028 9.4 36.9 1135 S | 175 24.2 37 27 41.0 0.0 0.0 37.9 2257
6/19/25 71.2 1105 52.6 0044 - 28.0 1655 SSE | 161 27.3 32 22 45.8 0.0 0.0 - -
6/18/25 78.7 1331 50.8 0543 2.2 18.4 1818 S | 182 31.3 33 21 48.7 0.0 0.0 - -
6/17/25 76.6 1500 44.5 0525 1.3 21.1 0132 S | 183 29.7 37 23 46.3 0.0 0.0 43.9 0348
6/16/25 66.5 1227 51.8 2246 - 26.9 1454 SSE | 156 28.1 35 26 45.1 0.0 0.0 - -
6/15/25 71.4 1235 52.6 0430 3.8 24.8 1800 SSE | 158 31.0 37 25 47.2 0.0 0.0 - -
6/14/25 68.4 1223 54.3 0558 4.0 25.2 1714 SSE | 149 30.0 38 26 46.1 0.0 0.0 - -
6/13/25 64.8 1441 52.9 0521 5.6 25.9 1333 SSE | 156 28.0 37 27 44.3 0.0 0.0 - -
6/12/25 67.5 1229 48.2 0540 4.1 26.9 1509 SSE | 152 28.2 36 26 44.7 0.0 0.0 46.9 0547
6/11/25 69.6 1234 48.4 0523 4.4 27.4 1529 SSE | 160 28.4 36 13 45.4 0.0 0.0 46.7 0521
6/10/25 74.5 1351 52.0 0606 2.7 21.8 1359 WNW | 298 31.4 36 25 47.7 0.0 0.0 - -
6/9/25 74.8 1538 47.9 0311 1.8 17.3 1928 WSW | 238 31.6 38 27 47.2 0.0 0.0 47.9 0311
6/8/25 74.1 1411 50.3 0052 1.6 14.5 1706 SSW | 198 29.1 37 27 45.3 0.0 0.0 - -
6/7/25 72.5 1441 47.4 0548 - 17.9 1129 N | 8 29.7 38 25 45.4 0.0 0.0 47.1 0606
6/6/25 67.2 1227 45.8 0136 - 14.1 1634 WSW | 253 26.6 37 29 42.7 0.0 0.0 45.8 0136
6/5/25 65.9 1228 42.3 0538 2.1 22.6 1437 S | 177 26.3 40 29 42.0 0.0 0.0 41.3 0549
6/4/25 63.7 1203 42.3 0458 1.6 16.5 1325 WSW | 241 24.5 38 29 40.8 0.0 0.0 40.1 0447
6/3/25 69.4 1331 45.6 0618 2.3 23.6 1521 S | 179 27.6 38 26 43.8 0.0 0.0 45.0 0524
6/2/25 69.6 1254 47.0 0545 1.5 13.0 1809 SSW | 212 26.2 36 27 42.8 0.0 0.0 47.0 0545
6/1/25 72.2 1334 51.0 0050 3.1 25.8 1556 SSW | 192 30.6 36 23 47.2 0.0 0.0 - -
5/31/25 75.4 1434 53.0 0557 2.0 20.2 1817 SSW | 195 32.0 35 25 48.0 0.0 0.0 - -
5/30/25 76.2 1437 49.4 0613 1.8 15.9 1214 N | 10 26.1 29 3 46.1 0.0 0.0 47.9 0613
5/29/25 71.9 1553 44.5 0602 - 16.0 1526 N | 5 21.9 27 22 43.0 0.0 0.0 43.4 0155
5/28/25 68.8 1328 42.0 0347 1.7 20.9 1329 N | 3 20.3 34 21 40.7 0.0 0.0 40.6 0259
5/27/25 67.4 1607 40.2 0546 1.6 18.3 1318 NNE | 20 19.1 35 21 39.6 0.0 0.0 38.6 0551
5/26/25 60.8 1514 44.6 2236 3.2 21.7 0212 SSE | 163 19.1 34 21 39.2 0.0 0.0 39.9 0456
5/25/25 66.0 1332 40.9 0610 3.3 20.4 2311 SW | 235 20.8 36 21 40.3 0.0 0.0 39.6 0427
5/24/25 61.8 1323 41.4 0134 2.2 24.0 1711 S | 182 18.2 35 22 37.8 0.0 0.0 40.2 0121
5/23/25 58.9 1239 43.7 0024 4.3 25.2 0450 SSW | 192 19.3 37 22 38.2 0.0 0.0 36.2 0450
5/22/25 59.8 1403 45.4 0057 5.9 24.7 0940 WSW | 251 21.0 36 24 39.8 0.0 0.0 38.4 0009
5/21/25 64.3 1237 39.7 0600 2.7 22.4 2025 SSW | 205 21.2 39 21 40.3 0.0 0.0 38.6 0420
5/20/25 62.5 1421 36.3 0537 2.1 17.8 1805 S | 189 20.3 39 22 38.9 0.0 0.0 33.5 0618
5/19/25 60.6 1412 32.6 0522 3.3 22.5 2225 S | 187 19.5 41 27 36.6 4.8 0.0 27.4 0504
5/18/25 53.7 1628 28.3 0443 1.9 17.2 1702 NNE | 23 16.3 44 28 32.5 7.1 5.8 24.8 0122
5/17/25 45.0 0105 30.6 0012 5.5 41.2 1156 SSE | 160 15.8 44 31 31.1 2.3 1.5 23.0 1156
5/16/25 56.6 1532 36.0 0342 - 15.3 1631 S | 183 18.9 40 25 36.4 0.0 0.0 31.3 0318
5/15/25 51.6 1301 29.9 0606 3.0 23.0 1508 S | 187 17.3 43 30 33.5 6.0 3.7 27.2 0503
5/14/25 48.2 1425 22.3 0426 1.2 11.3 1430 SSW | 192 13.5 46 34 28.8 9.5 6.6 14.1 0426
5/13/25 34.0 1133 24.5 0057 3.9 24.5 0252 SSE | 165 8.1 44 38 23.1 24.0 22.7 13.6 0759
5/12/25 47.5 1232 30.3 0058 7.1 42.4 0434 S | 189 15.9 46 33 30.9 7.4 3.4 18.0 0006
5/11/25 54.6 1241 42.1 0050 6.5 46.7 1221 SSE | 164 22.0 37 28 38.6 0.0 0.0 32.0 0026
5/10/25 63.8 1237 45.8 0601 - 27.6 0057 SSW | 198 22.7 34 22 41.8 0.0 0.0 43.0 0553
5/9/25 63.7 1300 41.2 0420 1.4 13.8 1333 SSW | 206 22.2 39 21 40.6 0.0 0.0 39.5 0545
5/8/25 60.3 1517 37.5 0518 1.4 13.3 1526 SSW | 200 21.0 41 24 38.4 0.0 0.0 34.3 0513
5/7/25 57.9 1415 29.3 0607 1.5 17.7 1634 S | 184 18.8 44 26 35.1 6.1 4.5 24.8 0158
5/6/25 47.8 1645 29.7 0444 2.1 20.1 1451 NW | 307 15.1 45 31 31.0 10.0 4.9 25.1 0247
5/5/25 48.3 1707 31.5 0052 3.5 25.3 0116 NNW | 328 14.8 44 33 30.3 11.7 0.1 20.6 0116
5/4/25 43.0 1206 32.6 0322 2.8 20.1 1942 NNE | 32 13.4 44 35 28.7 13.4 0.0 21.8 1942
5/3/25 45.4 0117 32.3 2158 2.5 25.2 1433 SE | 142 15.5 42 35 31.2 5.9 0.0 25.5 1433
5/2/25 55.7 1343 35.1 0426 3.1 25.0 1717 SSW | 212 20.4 44 30 36.2 0.0 0.0 34.0 0556
Max 82.1 - 59.9 - 12.6 50.7 - - 34.0 100 47 50.7 24.0 24.0 58.2 -
Avg - - - - 2.8 - - - 19.7 - - 35.9 - 4.1 - -
Min 16.0 - 5.6 - 0.3 4.7 - - -9.9 26 3 9.0 0.0 0.0 -11.4 -
Total - - - - - - - - - - - - - 1,514.2 - -